Time;durP1;ratioP1;P1;durP2;ratioP2;P2;SDS_P1;SDS_P2;PMS_P1;PMS_P2;Temp;Humidity;BMP_temperature;BMP_pressure;BME280_temperature;BME280_humidity;BME280_pressure;Samples;Min_cycle;Max_cycle;Signal;HPM_P1;HPM_P2
2022/10/05 00:01:22;;;;;;;14.23;8.77;;;;;;;;;;5082525;28;20416;-84
2022/10/05 00:03:49;;;;;;;12.10;8.90;;;;;;;;;;5062706;28;20433;-85
2022/10/05 00:06:18;;;;;;;11.60;7.93;;;;;;;;;;5083017;28;20410;-85
2022/10/05 00:08:45;;;;;;;11.95;8.00;;;;;;;;;;5081528;28;20410;-85
2022/10/05 00:11:14;;;;;;;12.20;8.43;;;;;;;;;;5083567;28;20402;-83
2022/10/05 00:13:41;;;;;;;12.93;8.07;;;;;;;;;;5079354;28;20428;-84
2022/10/05 00:16:12;;;;;;;12.05;7.70;;;;;;;;;;5081749;28;20406;-86
2022/10/05 00:18:39;;;;;;;12.73;8.57;;;;;;;;;;5080686;28;20427;-84
2022/10/05 00:21:12;;;;;;;14.75;8.88;;;;;;;;;;5079289;28;20411;-84
2022/10/05 00:23:41;;;;;;;11.30;8.20;;;;;;;;;;5082818;28;20411;-85
2022/10/05 00:26:11;;;;;;;11.68;8.45;;;;;;;;;;5083027;28;20416;-85
2022/10/05 00:28:40;;;;;;;11.20;8.30;;;;;;;;;;5079837;28;20437;-85
2022/10/05 00:31:11;;;;;;;16.42;8.73;;;;;;;;;;5082225;28;20402;-84
2022/10/05 00:33:37;;;;;;;11.68;8.77;;;;;;;;;;5060998;28;20425;-83
2022/10/05 00:36:06;;;;;;;14.77;9.10;;;;;;;;;;5079188;28;20436;-84
2022/10/05 00:38:32;;;;;;;11.73;8.97;;;;;;;;;;5078964;28;20484;-85
2022/10/05 00:41:05;;;;;;;13.68;9.02;;;;;;;;;;5094824;28;20439;-85
2022/10/05 00:43:49;;;;;;;11.93;9.17;;;;;;;;;;5078332;28;20428;-83
2022/10/05 00:46:20;;;;;;;18.05;10.13;;;;;;;;;;5076116;28;20424;-85
2022/10/05 00:48:53;;;;;;;14.43;9.60;;;;;;;;;;5078926;28;20439;-84
2022/10/05 00:51:23;;;;;;;15.15;10.05;;;;;;;;;;5064376;28;20777;-84
2022/10/05 00:53:54;;;;;;;11.75;9.40;;;;;;;;;;5083760;28;20437;-84
2022/10/05 00:56:32;;;;;;;17.13;10.67;;;;;;;;;;5065558;28;20496;-84
2022/10/05 00:59:04;;;;;;;15.10;9.77;;;;;;;;;;5078091;28;20502;-85
2022/10/05 01:01:36;;;;;;;13.35;9.73;;;;;;;;;;5079621;28;20419;-84
2022/10/05 01:04:06;;;;;;;12.95;9.40;;;;;;;;;;5081969;28;20878;-84
2022/10/05 01:06:37;;;;;;;16.25;9.68;;;;;;;;;;5079992;28;20419;-83
2022/10/05 01:09:07;;;;;;;14.73;9.40;;;;;;;;;;5079069;28;20790;-84
2022/10/05 01:11:37;;;;;;;14.55;9.40;;;;;;;;;;5082551;28;20406;-84
2022/10/05 01:14:08;;;;;;;14.10;9.30;;;;;;;;;;5066445;28;20429;-83
2022/10/05 01:16:41;;;;;;;12.88;9.27;;;;;;;;;;5081975;28;20797;-82
2022/10/05 01:19:16;;;;;;;13.93;9.60;;;;;;;;;;5081997;28;20427;-83
2022/10/05 01:21:45;;;;;;;14.02;9.23;;;;;;;;;;5079579;28;20406;-84
2022/10/05 01:24:26;;;;;;;13.30;9.57;;;;;;;;;;5082022;28;20429;-83
2022/10/05 01:27:07;;;;;;;13.30;10.27;;;;;;;;;;5074404;28;20414;-83
2022/10/05 01:29:37;;;;;;;14.85;10.25;;;;;;;;;;5081219;28;20501;-81
2022/10/05 01:32:10;;;;;;;15.02;10.40;;;;;;;;;;5080477;28;20410;-85
2022/10/05 01:34:39;;;;;;;14.43;9.60;;;;;;;;;;5079194;28;20436;-83
2022/10/05 01:37:11;;;;;;;12.18;9.60;;;;;;;;;;5084833;28;20417;-83
2022/10/05 01:39:43;;;;;;;13.80;9.57;;;;;;;;;;5081112;28;20470;-83
2022/10/05 01:42:14;;;;;;;13.02;10.07;;;;;;;;;;5077683;28;20427;-84
2022/10/05 01:44:47;;;;;;;13.43;10.40;;;;;;;;;;5079451;28;20452;-84
2022/10/05 01:47:17;;;;;;;12.88;9.73;;;;;;;;;;5083646;28;20725;-83
2022/10/05 01:49:46;;;;;;;12.88;9.52;;;;;;;;;;5082066;28;20450;-83
2022/10/05 01:52:18;;;;;;;15.37;9.43;;;;;;;;;;5082352;28;20418;-84
2022/10/05 01:54:51;;;;;;;15.38;9.80;;;;;;;;;;5078361;28;20427;-83
2022/10/05 01:57:20;;;;;;;12.70;10.00;;;;;;;;;;5077759;28;20414;-84
2022/10/05 01:59:58;;;;;;;16.20;10.00;;;;;;;;;;5080186;28;20426;-82
2022/10/05 02:02:25;;;;;;;14.75;10.10;;;;;;;;;;5075447;28;20419;-83
2022/10/05 02:04:54;;;;;;;14.82;10.98;;;;;;;;;;5081807;28;20421;-82
2022/10/05 02:07:22;;;;;;;13.73;9.68;;;;;;;;;;5077582;28;20426;-84
2022/10/05 02:09:54;;;;;;;15.73;10.10;;;;;;;;;;5082954;28;20426;-83
2022/10/05 02:12:23;;;;;;;16.25;10.70;;;;;;;;;;5078462;28;20416;-81
2022/10/05 02:14:50;;;;;;;15.10;10.70;;;;;;;;;;5079599;28;20423;-83
2022/10/05 02:17:20;;;;;;;18.77;10.68;;;;;;;;;;5080231;28;20429;-83
2022/10/05 02:19:48;;;;;;;15.20;10.45;;;;;;;;;;5062264;28;20421;-82
2022/10/05 02:22:16;;;;;;;12.13;10.13;;;;;;;;;;5093126;28;20426;-82
2022/10/05 02:24:44;;;;;;;15.77;10.95;;;;;;;;;;5079375;28;20422;-87
2022/10/05 02:27:14;;;;;;;16.80;10.85;;;;;;;;;;5076653;28;20414;-82
2022/10/05 02:29:42;;;;;;;15.10;11.30;;;;;;;;;;5078439;28;20468;-83
2022/10/05 02:32:13;;;;;;;13.30;10.80;;;;;;;;;;5077981;28;20425;-84
2022/10/05 02:34:41;;;;;;;17.20;11.07;;;;;;;;;;5083123;28;20457;-84
2022/10/05 02:37:16;;;;;;;13.38;10.73;;;;;;;;;;5079341;28;20418;-82
2022/10/05 02:39:46;;;;;;;14.23;11.10;;;;;;;;;;5079342;28;20423;-84
2022/10/05 02:42:16;;;;;;;15.07;11.23;;;;;;;;;;5079241;28;20912;-82
2022/10/05 02:44:48;;;;;;;14.15;11.32;;;;;;;;;;5077258;28;20424;-84
2022/10/05 02:47:18;;;;;;;14.70;11.30;;;;;;;;;;5077672;28;20411;-82
2022/10/05 02:49:49;;;;;;;16.42;11.20;;;;;;;;;;5080316;28;20420;-83
2022/10/05 02:52:18;;;;;;;13.20;10.23;;;;;;;;;;5084856;28;20421;-83
2022/10/05 02:54:50;;;;;;;16.98;10.82;;;;;;;;;;5083700;28;20795;-82
2022/10/05 02:57:20;;;;;;;14.23;10.90;;;;;;;;;;5076908;28;20431;-86
2022/10/05 02:59:51;;;;;;;13.32;10.75;;;;;;;;;;5081621;28;20434;-84
2022/10/05 03:02:21;;;;;;;17.40;10.95;;;;;;;;;;5079612;28;20420;-84
2022/10/05 03:04:54;;;;;;;19.73;11.88;;;;;;;;;;5080634;28;20804;-82
2022/10/05 03:07:23;;;;;;;15.63;11.45;;;;;;;;;;5075399;28;20458;-83
2022/10/05 03:09:56;;;;;;;14.45;10.50;;;;;;;;;;5081117;28;20424;-83
2022/10/05 03:12:28;;;;;;;17.42;10.38;;;;;;;;;;5076665;28;20427;-83
2022/10/05 03:14:59;;;;;;;17.25;11.02;;;;;;;;;;5077254;28;20427;-84
2022/10/05 03:17:30;;;;;;;16.48;12.10;;;;;;;;;;5078710;28;20422;-84
2022/10/05 03:20:05;;;;;;;15.23;11.35;;;;;;;;;;5080066;28;20422;-82
2022/10/05 03:22:37;;;;;;;15.25;10.45;;;;;;;;;;5078066;28;20462;-84
2022/10/05 03:25:17;;;;;;;15.95;11.70;;;;;;;;;;5080773;28;20425;-83
2022/10/05 03:27:49;;;;;;;16.48;11.48;;;;;;;;;;5078313;28;20416;-83
2022/10/05 03:30:17;;;;;;;13.95;11.27;;;;;;;;;;5064428;28;20423;-81
2022/10/05 03:32:50;;;;;;;14.35;10.32;;;;;;;;;;5080719;28;20938;-84
2022/10/05 03:35:23;;;;;;;15.80;11.65;;;;;;;;;;5082632;28;20797;-83
2022/10/05 03:37:53;;;;;;;17.05;12.93;;;;;;;;;;5079172;28;20442;-83
2022/10/05 03:40:24;;;;;;;15.27;11.60;;;;;;;;;;5081178;28;20414;-84
2022/10/05 03:42:57;;;;;;;14.80;11.40;;;;;;;;;;5079955;28;20426;-83
2022/10/05 03:45:27;;;;;;;15.40;11.30;;;;;;;;;;5075021;28;20423;-83
2022/10/05 03:47:56;;;;;;;14.75;11.10;;;;;;;;;;5083435;28;20426;-83
2022/10/05 03:50:27;;;;;;;15.65;10.57;;;;;;;;;;5080215;28;20473;-83
2022/10/05 03:52:56;;;;;;;17.25;12.27;;;;;;;;;;5080176;28;20414;-83
2022/10/05 03:55:26;;;;;;;16.77;12.00;;;;;;;;;;5083772;28;20482;-82
2022/10/05 03:57:55;;;;;;;19.08;12.55;;;;;;;;;;5080883;28;20436;-82
2022/10/05 04:00:23;;;;;;;17.35;12.38;;;;;;;;;;5066208;28;20421;-83
2022/10/05 04:02:52;;;;;;;20.65;12.70;;;;;;;;;;5064053;28;20936;-83
2022/10/05 04:05:20;;;;;;;16.98;12.35;;;;;;;;;;5081839;28;20435;-82
2022/10/05 04:07:51;;;;;;;18.88;11.85;;;;;;;;;;5083177;28;20505;-84
2022/10/05 04:10:21;;;;;;;18.90;11.90;;;;;;;;;;5082789;28;20431;-84
2022/10/05 04:12:51;;;;;;;15.23;11.60;;;;;;;;;;5079898;28;20414;-84
2022/10/05 04:15:21;;;;;;;14.77;11.82;;;;;;;;;;5085941;28;20426;-85
2022/10/05 04:17:50;;;;;;;20.20;13.25;;;;;;;;;;5082459;28;20420;-83
2022/10/05 04:20:18;;;;;;;18.42;12.70;;;;;;;;;;5081209;28;20450;-83
2022/10/05 04:22:49;;;;;;;16.42;12.00;;;;;;;;;;5080548;28;20420;-81
2022/10/05 04:25:18;;;;;;;17.42;11.80;;;;;;;;;;5081640;28;20431;-84
2022/10/05 04:27:47;;;;;;;16.83;12.57;;;;;;;;;;5077228;28;20423;-84
2022/10/05 04:30:15;;;;;;;18.25;13.10;;;;;;;;;;5081143;28;20919;-84
2022/10/05 04:32:43;;;;;;;22.30;12.70;;;;;;;;;;5084073;28;20414;-83
2022/10/05 04:35:19;;;;;;;15.15;12.23;;;;;;;;;;5079138;28;20423;-83
2022/10/05 04:37:49;;;;;;;17.48;13.45;;;;;;;;;;5083326;28;20423;-82
2022/10/05 04:40:23;;;;;;;19.45;13.18;;;;;;;;;;5085377;28;20428;-82
2022/10/05 04:42:55;;;;;;;17.02;12.23;;;;;;;;;;5080801;28;20418;-82
2022/10/05 04:45:29;;;;;;;19.88;13.00;;;;;;;;;;5081435;28;20428;-83
2022/10/05 04:48:01;;;;;;;17.17;12.68;;;;;;;;;;5094366;28;20434;-83
2022/10/05 04:50:35;;;;;;;16.75;12.73;;;;;;;;;;5085302;28;20435;-83
2022/10/05 04:53:10;;;;;;;18.00;12.73;;;;;;;;;;5077760;28;20435;-83
2022/10/05 04:55:46;;;;;;;17.20;13.07;;;;;;;;;;5084046;28;20453;-83
2022/10/05 04:58:19;;;;;;;20.90;13.32;;;;;;;;;;5081248;28;20431;-82
2022/10/05 05:00:52;;;;;;;17.40;13.90;;;;;;;;;;5079688;28;20432;-83
2022/10/05 05:03:31;;;;;;;16.85;12.25;;;;;;;;;;5086827;28;20452;-84
2022/10/05 05:06:02;;;;;;;17.63;13.32;;;;;;;;;;5083637;27;20812;-84
2022/10/05 05:08:38;;;;;;;22.40;13.70;;;;;;;;;;5081274;28;20430;-83
2022/10/05 05:11:10;;;;;;;17.95;13.55;;;;;;;;;;5081056;27;20438;-84
2022/10/05 05:13:55;;;;;;;18.77;14.07;;;;;;;;;;5081815;28;20423;-84
2022/10/05 05:16:25;;;;;;;20.88;14.05;;;;;;;;;;5080754;28;20406;-85
2022/10/05 05:18:58;;;;;;;20.25;14.82;;;;;;;;;;5081189;28;20425;-83
2022/10/05 05:21:31;;;;;;;19.60;14.75;;;;;;;;;;5077712;28;20431;-86
2022/10/05 05:24:03;;;;;;;19.27;14.60;;;;;;;;;;5079918;28;20431;-84
2022/10/05 05:26:37;;;;;;;18.23;14.40;;;;;;;;;;5079191;28;20426;-83
2022/10/05 05:29:05;;;;;;;19.90;14.60;;;;;;;;;;5083045;28;20422;-82
2022/10/05 05:31:35;;;;;;;20.87;15.50;;;;;;;;;;5065456;28;20418;-84
2022/10/05 05:34:05;;;;;;;21.77;14.40;;;;;;;;;;5080843;28;20436;-82
2022/10/05 05:36:39;;;;;;;21.40;15.45;;;;;;;;;;5078403;28;20413;-84
2022/10/05 05:39:15;;;;;;;18.67;14.20;;;;;;;;;;5078173;28;20426;-83
2022/10/05 05:41:50;;;;;;;19.58;15.38;;;;;;;;;;5078903;28;20941;-82
2022/10/05 05:44:20;;;;;;;20.20;15.88;;;;;;;;;;5082184;28;20411;-83
2022/10/05 05:46:49;;;;;;;20.90;15.90;;;;;;;;;;5081849;28;20408;-82
2022/10/05 05:49:20;;;;;;;22.98;15.05;;;;;;;;;;5079109;28;20430;-82
2022/10/05 05:51:50;;;;;;;18.52;14.38;;;;;;;;;;5078289;28;20413;-82
2022/10/05 05:54:27;;;;;;;22.45;16.00;;;;;;;;;;5085352;28;20429;-83
2022/10/05 05:56:57;;;;;;;18.73;14.90;;;;;;;;;;5081277;28;20475;-82
2022/10/05 05:59:26;;;;;;;20.88;15.30;;;;;;;;;;5083626;28;20412;-83
2022/10/05 06:01:54;;;;;;;23.35;15.02;;;;;;;;;;5082747;28;20414;-83
2022/10/05 06:04:25;;;;;;;21.05;15.77;;;;;;;;;;5079932;28;20410;-83
2022/10/05 06:06:53;;;;;;;21.50;15.67;;;;;;;;;;5081656;28;20424;-82
2022/10/05 06:09:22;;;;;;;20.67;15.68;;;;;;;;;;5079966;28;20431;-83
2022/10/05 06:11:52;;;;;;;23.23;16.07;;;;;;;;;;5080858;28;20933;-85
2022/10/05 06:14:22;;;;;;;21.42;16.00;;;;;;;;;;5079582;28;20428;-82
2022/10/05 06:16:51;;;;;;;20.70;16.25;;;;;;;;;;5078575;27;20410;-82
2022/10/05 06:19:19;;;;;;;22.13;16.00;;;;;;;;;;5080810;28;20432;-83
2022/10/05 06:21:48;;;;;;;22.30;16.35;;;;;;;;;;5078619;28;20846;-83
2022/10/05 06:24:16;;;;;;;22.88;16.17;;;;;;;;;;5080820;28;20445;-82
2022/10/05 06:27:04;;;;;;;24.92;16.13;;;;;;;;;;5081599;28;20410;-84
2022/10/05 06:29:38;;;;;;;20.48;15.50;;;;;;;;;;5081112;28;20891;-82
2022/10/05 06:32:06;;;;;;;21.90;16.00;;;;;;;;;;5083432;28;20425;-83
2022/10/05 06:34:47;;;;;;;29.60;16.40;;;;;;;;;;5083918;28;20457;-84
2022/10/05 06:37:20;;;;;;;20.75;15.70;;;;;;;;;;5073663;28;20423;-82
2022/10/05 06:39:57;;;;;;;24.20;16.30;;;;;;;;;;5080835;28;20434;-82
2022/10/05 06:42:32;;;;;;;24.77;17.00;;;;;;;;;;5080370;28;20422;-81
2022/10/05 06:45:01;;;;;;;21.73;17.30;;;;;;;;;;5083676;28;20407;-83
2022/10/05 06:47:33;;;;;;;21.60;16.25;;;;;;;;;;5081698;28;20402;-83
2022/10/05 06:50:04;;;;;;;24.98;16.13;;;;;;;;;;5079499;28;20425;-84
2022/10/05 06:52:35;;;;;;;20.90;15.60;;;;;;;;;;5079440;28;20419;-82
2022/10/05 06:55:07;;;;;;;25.05;16.35;;;;;;;;;;5083493;28;21028;-82
2022/10/05 06:57:48;;;;;;;24.05;17.30;;;;;;;;;;5079443;28;21089;-82
2022/10/05 07:00:19;;;;;;;24.10;16.67;;;;;;;;;;5083317;28;20789;-82
2022/10/05 07:02:57;;;;;;;24.85;16.65;;;;;;;;;;5083051;28;20434;-84
2022/10/05 07:05:45;;;;;;;20.13;16.52;;;;;;;;;;5079770;28;20475;-82
2022/10/05 07:08:13;;;;;;;23.40;17.15;;;;;;;;;;5075649;28;20454;-83
2022/10/05 07:10:47;;;;;;;22.55;15.55;;;;;;;;;;5076624;28;20437;-83
2022/10/05 07:13:25;;;;;;;25.55;16.33;;;;;;;;;;5080879;28;20410;-83
2022/10/05 07:15:56;;;;;;;23.67;16.90;;;;;;;;;;5079923;28;20424;-82
2022/10/05 07:18:30;;;;;;;26.48;17.65;;;;;;;;;;5080412;28;20428;-82
2022/10/05 07:21:01;;;;;;;23.48;18.13;;;;;;;;;;5080008;28;20414;-82
2022/10/05 07:23:35;;;;;;;26.95;18.45;;;;;;;;;;5080035;28;20432;-82
2022/10/05 07:26:06;;;;;;;25.25;17.50;;;;;;;;;;5073143;28;20423;-84
2022/10/05 07:28:38;;;;;;;21.87;16.83;;;;;;;;;;5104133;28;20589;-83
2022/10/05 07:31:08;;;;;;;21.77;16.10;;;;;;;;;;5078494;28;20424;-82
2022/10/05 07:33:40;;;;;;;23.58;17.23;;;;;;;;;;5083089;28;20458;-84
2022/10/05 07:38:59;;;;;;;20.95;15.95;;;;;;;;;;5084290;28;20523;-83
2022/10/05 07:41:30;;;;;;;23.27;16.08;;;;;;;;;;5082638;28;20409;-83
2022/10/05 07:44:00;;;;;;;23.42;15.43;;;;;;;;;;5083180;28;20423;-83
2022/10/05 07:46:31;;;;;;;20.10;15.30;;;;;;;;;;5084726;28;20411;-83
2022/10/05 07:49:04;;;;;;;20.65;14.55;;;;;;;;;;5081433;28;20442;-85
2022/10/05 07:51:36;;;;;;;23.35;15.63;;;;;;;;;;5078698;27;20428;-84
2022/10/05 07:54:10;;;;;;;18.58;14.10;;;;;;;;;;5102224;27;20427;-84
2022/10/05 07:56:40;;;;;;;20.70;14.05;;;;;;;;;;5081095;28;20433;-83
2022/10/05 07:59:07;;;;;;;17.30;14.13;;;;;;;;;;5083407;28;20914;-84
2022/10/05 08:01:37;;;;;;;21.33;14.60;;;;;;;;;;5082114;28;20505;-84
2022/10/05 08:04:05;;;;;;;17.10;13.50;;;;;;;;;;5080727;28;20415;-83
2022/10/05 08:06:40;;;;;;;19.10;14.20;;;;;;;;;;5083389;28;20414;-84
2022/10/05 08:09:12;;;;;;;18.13;14.30;;;;;;;;;;5083388;28;20808;-84
2022/10/05 08:11:45;;;;;;;18.50;14.85;;;;;;;;;;5081127;28;20418;-85
2022/10/05 08:14:15;;;;;;;15.88;14.07;;;;;;;;;;5082117;28;20434;-84
2022/10/05 08:16:43;;;;;;;18.25;14.32;;;;;;;;;;5079746;28;20940;-82
2022/10/05 08:19:16;;;;;;;17.83;14.75;;;;;;;;;;5078761;28;20487;-84
2022/10/05 08:21:44;;;;;;;16.73;13.75;;;;;;;;;;5082763;28;20447;-83
2022/10/05 08:24:15;;;;;;;18.88;14.40;;;;;;;;;;5084145;28;20422;-83
2022/10/05 08:26:45;;;;;;;18.33;13.23;;;;;;;;;;5083403;28;20424;-82
2022/10/05 08:29:17;;;;;;;17.85;14.00;;;;;;;;;;5084853;28;21080;-82
2022/10/05 08:31:47;;;;;;;17.80;13.20;;;;;;;;;;5081378;28;20408;-83
2022/10/05 08:34:25;;;;;;;18.70;12.50;;;;;;;;;;5081424;28;20442;-84
2022/10/05 08:36:55;;;;;;;19.73;12.80;;;;;;;;;;5084377;28;20414;-82
2022/10/05 08:39:23;;;;;;;15.20;12.27;;;;;;;;;;5081029;28;20427;-82
2022/10/05 08:42:13;;;;;;;17.20;12.60;;;;;;;;;;5083101;28;20418;-83
2022/10/05 08:45:01;;;;;;;17.55;12.68;;;;;;;;;;5088677;28;20414;-83
2022/10/05 08:47:45;;;;;;;15.52;11.98;;;;;;;;;;5081619;28;20431;-83
2022/10/05 08:50:27;;;;;;;12.70;10.80;;;;;;;;;;5078769;28;20435;-82
2022/10/05 08:53:06;;;;;;;15.23;11.80;;;;;;;;;;5078883;28;20856;-83
2022/10/05 08:55:39;;;;;;;14.43;11.35;;;;;;;;;;5078800;28;20927;-84
2022/10/05 08:58:27;;;;;;;15.90;12.10;;;;;;;;;;5083665;28;20420;-81
2022/10/05 09:00:57;;;;;;;15.73;11.48;;;;;;;;;;5079120;28;20935;-84
2022/10/05 09:03:33;;;;;;;15.15;11.32;;;;;;;;;;5082727;28;20432;-85
2022/10/05 09:06:07;;;;;;;13.00;10.48;;;;;;;;;;5078777;28;20450;-84
2022/10/05 09:08:49;;;;;;;12.93;10.70;;;;;;;;;;5080455;28;20417;-86
2022/10/05 09:11:20;;;;;;;12.75;11.15;;;;;;;;;;5082853;27;20425;-82
2022/10/05 09:13:55;;;;;;;14.70;11.30;;;;;;;;;;5083017;28;20415;-81
2022/10/05 09:16:47;;;;;;;13.13;11.00;;;;;;;;;;5080160;28;20415;-84
2022/10/05 09:19:34;;;;;;;14.02;10.98;;;;;;;;;;5084101;28;20421;-82
2022/10/05 09:22:06;;;;;;;13.10;11.10;;;;;;;;;;5080191;28;20409;-82
2022/10/05 09:24:43;;;;;;;15.45;12.07;;;;;;;;;;5081500;28;20434;-81
2022/10/05 09:27:14;;;;;;;14.60;11.70;;;;;;;;;;5077422;28;20416;-86
2022/10/05 09:30:01;;;;;;;14.73;11.93;;;;;;;;;;5080584;28;20791;-83
2022/10/05 09:32:35;;;;;;;13.98;11.52;;;;;;;;;;5081697;28;20932;-81
2022/10/05 09:35:09;;;;;;;13.75;11.10;;;;;;;;;;5081876;28;20430;-83
2022/10/05 09:37:44;;;;;;;16.50;12.57;;;;;;;;;;5078799;28;20424;-82
2022/10/05 09:40:31;;;;;;;14.50;12.55;;;;;;;;;;5080548;28;20423;-81
2022/10/05 09:43:08;;;;;;;13.48;11.73;;;;;;;;;;5078355;28;20427;-83
2022/10/05 09:46:02;;;;;;;14.60;12.30;;;;;;;;;;5080033;28;20408;-83
2022/10/05 09:48:42;;;;;;;13.57;12.18;;;;;;;;;;5081941;28;20405;-85
2022/10/05 09:51:14;;;;;;;14.60;13.10;;;;;;;;;;5080076;28;20406;-85
2022/10/05 09:53:55;;;;;;;15.20;12.30;;;;;;;;;;5079784;28;20420;-85
2022/10/05 09:56:34;;;;;;;13.68;11.77;;;;;;;;;;5073249;28;20412;-85
2022/10/05 09:59:22;;;;;;;13.40;11.40;;;;;;;;;;5083242;28;20431;-82
2022/10/05 10:02:04;;;;;;;11.90;10.80;;;;;;;;;;5080735;28;20420;-84
2022/10/05 10:04:48;;;;;;;15.32;10.85;;;;;;;;;;5079904;28;20412;-82
2022/10/05 10:07:25;;;;;;;11.00;9.65;;;;;;;;;;5082814;28;20416;-83
2022/10/05 10:10:00;;;;;;;10.18;9.18;;;;;;;;;;5082926;28;20428;-83
2022/10/05 10:12:40;;;;;;;9.40;8.50;;;;;;;;;;5079856;28;20445;-83
2022/10/05 10:15:27;;;;;;;9.32;8.38;;;;;;;;;;5083364;28;20426;-84
2022/10/05 10:18:20;;;;;;;9.48;8.57;;;;;;;;;;5081892;28;20420;-85
2022/10/05 10:21:01;;;;;;;8.55;7.75;;;;;;;;;;5033338;28;20477;-82
2022/10/05 10:23:47;;;;;;;8.80;7.95;;;;;;;;;;5080266;28;20429;-84
2022/10/05 10:26:25;;;;;;;8.60;7.80;;;;;;;;;;5079386;28;20427;-82
2022/10/05 10:28:59;;;;;;;9.95;8.10;;;;;;;;;;5079777;28;20421;-85
2022/10/05 10:31:40;;;;;;;8.75;7.95;;;;;;;;;;5079908;28;20839;-82
2022/10/05 10:34:15;;;;;;;8.55;7.57;;;;;;;;;;5077106;28;20408;-83
2022/10/05 10:36:50;;;;;;;8.70;7.80;;;;;;;;;;5079627;27;20937;-83
2022/10/05 10:39:21;;;;;;;8.10;7.32;;;;;;;;;;5082332;28;20416;-81
2022/10/05 10:42:06;;;;;;;7.43;6.72;;;;;;;;;;5077607;28;20427;-83
2022/10/05 10:44:41;;;;;;;8.70;6.53;;;;;;;;;;5079542;28;20465;-82
2022/10/05 10:47:23;;;;;;;7.05;6.28;;;;;;;;;;5078806;28;20582;-82
2022/10/05 10:50:04;;;;;;;6.37;5.70;;;;;;;;;;5081021;28;20414;-81
2022/10/05 10:52:40;;;;;;;6.30;5.70;;;;;;;;;;5078542;28;20453;-81
2022/10/05 10:55:22;;;;;;;6.80;5.60;;;;;;;;;;5077178;28;20427;-82
2022/10/05 10:58:01;;;;;;;6.30;5.45;;;;;;;;;;5082942;28;20420;-83
2022/10/05 11:00:33;;;;;;;5.32;4.75;;;;;;;;;;5081043;28;20406;-83
2022/10/05 11:03:22;;;;;;;6.10;4.45;;;;;;;;;;5084474;28;20430;-83
2022/10/05 11:06:07;;;;;;;9.73;4.80;;;;;;;;;;5080403;28;20498;-84
2022/10/05 11:08:48;;;;;;;5.75;4.25;;;;;;;;;;5082311;28;20911;-81
2022/10/05 11:11:23;;;;;;;4.72;4.32;;;;;;;;;;5081094;28;20415;-84
2022/10/05 11:14:02;;;;;;;6.10;4.50;;;;;;;;;;5085918;28;20421;-82
2022/10/05 11:16:57;;;;;;;5.78;4.55;;;;;;;;;;5087775;28;20427;-82
2022/10/05 11:19:44;;;;;;;5.10;4.60;;;;;;;;;;5082018;28;20410;-81
2022/10/05 11:22:18;;;;;;;5.50;4.82;;;;;;;;;;5077341;28;20419;-84
2022/10/05 11:24:58;;;;;;;5.50;4.70;;;;;;;;;;5079876;28;20415;-80
2022/10/05 11:27:45;;;;;;;6.30;4.90;;;;;;;;;;5084721;28;20853;-82
2022/10/05 11:30:24;;;;;;;7.75;4.82;;;;;;;;;;5087620;28;20414;-82
2022/10/05 11:33:10;;;;;;;7.70;4.60;;;;;;;;;;5087673;28;20437;-82
2022/10/05 11:35:46;;;;;;;6.22;4.50;;;;;;;;;;5086765;28;20426;-83
2022/10/05 11:38:21;;;;;;;6.75;4.30;;;;;;;;;;5088762;28;20420;-83
2022/10/05 11:41:05;;;;;;;4.47;4.03;;;;;;;;;;5086727;28;20787;-82
2022/10/05 11:43:40;;;;;;;7.47;4.70;;;;;;;;;;5089293;28;20426;-84
2022/10/05 11:46:10;;;;;;;7.28;5.30;;;;;;;;;;5085951;28;20459;-82
2022/10/05 11:48:41;;;;;;;6.05;4.70;;;;;;;;;;5085746;28;20423;-82
2022/10/05 11:51:21;;;;;;;5.95;4.60;;;;;;;;;;5090509;28;20426;-82
2022/10/05 11:53:51;;;;;;;5.88;4.47;;;;;;;;;;5083508;28;20891;-81
2022/10/05 11:56:23;;;;;;;5.38;4.57;;;;;;;;;;5086972;28;20411;-84
2022/10/05 11:58:53;;;;;;;10.18;5.40;;;;;;;;;;5089487;28;20425;-83
2022/10/05 12:01:25;;;;;;;6.93;4.28;;;;;;;;;;5085351;28;20895;-86
2022/10/05 12:03:55;;;;;;;6.47;4.47;;;;;;;;;;5084046;28;20940;-82
2022/10/05 12:06:40;;;;;;;6.40;4.32;;;;;;;;;;5085068;28;20406;-85
2022/10/05 12:09:23;;;;;;;5.03;4.00;;;;;;;;;;5079251;28;20416;-84
2022/10/05 12:12:04;;;;;;;5.50;4.60;;;;;;;;;;5085516;28;20433;-84
2022/10/05 12:14:38;;;;;;;5.30;4.20;;;;;;;;;;5082040;28;20429;-83
2022/10/05 12:17:10;;;;;;;7.20;4.63;;;;;;;;;;5082247;28;20517;-83
2022/10/05 12:19:39;;;;;;;5.60;4.00;;;;;;;;;;5080106;28;20429;-82
2022/10/05 12:22:14;;;;;;;6.55;4.13;;;;;;;;;;5082446;28;20414;-81
2022/10/05 12:25:00;;;;;;;5.43;4.25;;;;;;;;;;5084111;28;20879;-82
2022/10/05 12:27:27;;;;;;;4.70;3.60;;;;;;;;;;5086357;28;20438;-82
2022/10/05 12:29:59;;;;;;;5.88;4.00;;;;;;;;;;5084062;28;20410;-83
2022/10/05 12:32:29;;;;;;;5.40;4.30;;;;;;;;;;5083475;28;20409;-83
2022/10/05 12:34:59;;;;;;;5.90;3.72;;;;;;;;;;5086302;28;20430;-82
2022/10/05 12:37:40;;;;;;;4.30;3.90;;;;;;;;;;5083572;28;20421;-82
2022/10/05 12:40:17;;;;;;;6.00;4.40;;;;;;;;;;5087449;28;20410;-83
2022/10/05 12:42:49;;;;;;;5.30;4.30;;;;;;;;;;5083327;28;20433;-82
2022/10/05 12:45:22;;;;;;;4.60;3.80;;;;;;;;;;5083551;28;20417;-84
2022/10/05 12:47:55;;;;;;;6.80;4.40;;;;;;;;;;5085883;27;20419;-81
2022/10/05 12:50:26;;;;;;;5.70;4.13;;;;;;;;;;5082913;28;20433;-82
2022/10/05 12:53:02;;;;;;;8.75;4.40;;;;;;;;;;5086823;28;20445;-82
2022/10/05 12:55:32;;;;;;;8.95;4.20;;;;;;;;;;5091912;28;20420;-84
2022/10/05 12:58:05;;;;;;;4.45;3.80;;;;;;;;;;5086328;28;20412;-83
2022/10/05 13:00:34;;;;;;;5.95;3.85;;;;;;;;;;5084790;28;20423;-83
2022/10/05 13:03:03;;;;;;;5.03;3.75;;;;;;;;;;5082895;28;20424;-84
2022/10/05 13:05:31;;;;;;;5.05;3.80;;;;;;;;;;5080699;28;20430;-84
2022/10/05 13:08:03;;;;;;;6.00;3.50;;;;;;;;;;5079799;28;20422;-83
2022/10/05 13:10:32;;;;;;;8.02;3.80;;;;;;;;;;5085893;28;20595;-83
2022/10/05 13:13:05;;;;;;;5.40;3.55;;;;;;;;;;5081350;28;20416;-82
2022/10/05 13:15:37;;;;;;;4.43;3.63;;;;;;;;;;5081285;28;20419;-84
2022/10/05 13:18:10;;;;;;;4.22;3.40;;;;;;;;;;5080932;28;20426;-83
2022/10/05 13:20:42;;;;;;;4.70;3.60;;;;;;;;;;5083785;28;20473;-83
2022/10/05 13:23:12;;;;;;;7.90;3.75;;;;;;;;;;5080510;28;20425;-82
2022/10/05 13:25:42;;;;;;;5.00;3.90;;;;;;;;;;5082142;28;20917;-84
2022/10/05 13:28:15;;;;;;;7.70;4.47;;;;;;;;;;5078364;28;20801;-84
2022/10/05 13:30:48;;;;;;;4.70;3.80;;;;;;;;;;5080296;28;20406;-83
2022/10/05 13:33:16;;;;;;;6.93;3.72;;;;;;;;;;5077064;28;20926;-83
2022/10/05 13:35:45;;;;;;;4.30;3.70;;;;;;;;;;5079237;28;20845;-84
2022/10/05 13:38:19;;;;;;;5.25;3.55;;;;;;;;;;5083611;28;20431;-83
2022/10/05 13:40:49;;;;;;;4.72;3.92;;;;;;;;;;5080178;28;20459;-82
2022/10/05 13:43:21;;;;;;;6.18;3.83;;;;;;;;;;5081772;28;20814;-82
2022/10/05 13:45:55;;;;;;;5.32;3.90;;;;;;;;;;5080992;27;20419;-84
2022/10/05 13:48:26;;;;;;;6.50;4.00;;;;;;;;;;5078830;28;20431;-84
2022/10/05 13:51:00;;;;;;;8.23;4.10;;;;;;;;;;5081628;28;20411;-81
2022/10/05 13:53:31;;;;;;;5.20;4.05;;;;;;;;;;5081269;28;20418;-84
2022/10/05 13:55:59;;;;;;;6.00;4.13;;;;;;;;;;5080556;28;20477;-82
2022/10/05 13:58:30;;;;;;;7.30;3.70;;;;;;;;;;5080686;28;20480;-83
2022/10/05 14:00:59;;;;;;;7.22;3.70;;;;;;;;;;5080551;28;20459;-83
2022/10/05 14:03:28;;;;;;;5.50;3.50;;;;;;;;;;5086658;28;20411;-83
2022/10/05 14:05:56;;;;;;;7.15;3.72;;;;;;;;;;5077546;28;20416;-83
2022/10/05 14:08:25;;;;;;;4.30;3.80;;;;;;;;;;5081644;28;20422;-83
2022/10/05 14:10:52;;;;;;;6.50;4.07;;;;;;;;;;5082430;28;20414;-82
2022/10/05 14:13:25;;;;;;;6.30;4.10;;;;;;;;;;5077241;28;20443;-82
2022/10/05 14:16:03;;;;;;;6.60;3.58;;;;;;;;;;5080376;28;20429;-84
2022/10/05 14:18:31;;;;;;;4.85;3.85;;;;;;;;;;5079068;28;20480;-84
2022/10/05 14:20:58;;;;;;;4.95;4.00;;;;;;;;;;5081245;28;20418;-84
2022/10/05 14:23:25;;;;;;;4.90;3.67;;;;;;;;;;5079354;28;20426;-83
2022/10/05 14:25:52;;;;;;;4.75;3.70;;;;;;;;;;5081563;28;20431;-84
2022/10/05 14:28:24;;;;;;;6.65;3.78;;;;;;;;;;5074525;28;20432;-83
2022/10/05 14:30:57;;;;;;;5.22;3.60;;;;;;;;;;5081143;28;20429;-82
2022/10/05 14:33:25;;;;;;;6.25;4.40;;;;;;;;;;5077687;28;20438;-82
2022/10/05 14:35:53;;;;;;;7.65;3.90;;;;;;;;;;5079392;28;20425;-83
2022/10/05 14:38:22;;;;;;;6.25;3.60;;;;;;;;;;5082652;28;20422;-83
2022/10/05 14:41:07;;;;;;;6.07;3.80;;;;;;;;;;5079360;28;20412;-83
2022/10/05 14:43:34;;;;;;;4.80;4.10;;;;;;;;;;5080023;28;20435;-82
2022/10/05 14:46:02;;;;;;;5.63;4.10;;;;;;;;;;5082962;28;21146;-82
2022/10/05 14:48:41;;;;;;;5.50;4.45;;;;;;;;;;5081633;28;20483;-83
2022/10/05 14:51:10;;;;;;;5.07;3.92;;;;;;;;;;5079093;28;20422;-82
2022/10/05 14:53:39;;;;;;;5.05;4.28;;;;;;;;;;5082137;28;20493;-84
2022/10/05 14:56:24;;;;;;;6.05;4.07;;;;;;;;;;5075739;27;20414;-84
2022/10/05 14:58:57;;;;;;;6.35;4.30;;;;;;;;;;5082041;28;20908;-83
2022/10/05 15:01:26;;;;;;;4.95;3.60;;;;;;;;;;5079082;28;20409;-82
2022/10/05 15:03:57;;;;;;;4.47;3.90;;;;;;;;;;5081350;28;20427;-83